Terminal Aerodrome Forecast
Issued by NWS Charleston, SC

Current Version | Previous Version | Text Only | Print | Product List | Glossary On
Versions: 1 2 3 4 5 6 7 8 9 10 11 12 13 14 15 16
000
FTUS42 KCHS 300500
TAFCHS
TAF
KCHS 300523Z 3006/3106 VRB03KT P6SM SCT080
     FM301800 11008KT P6SM SCT050
     FM310000 08004KT P6SM FEW040=

USA.gov is the U.S. government's official web portal to all federal, state and local government web resources and services.